Terminal Aerodrome Forecast
Issued by NWS Twin Cities, MN

Home | Current Version | Previous Version | Graphics & Text | Print | Product List | Glossary On
Versions: 1 2 3 4 5 6 7 8 9 10 11 12 13 14 15 16 17 18 19 20 21 22 23 24 25 26 27 28 29 30
000
FTUS43 KMPX 241454 AAA
TAFMSP
TAF AMD
KMSP 241454Z 2415/2518 13007KT P6SM SCT020
      TEMPO 2415/2418 BKN020
     FM241800 13008KT P6SM SCT030
     FM250000 14009KT P6SM SCT250
     FM250600 14008KT P6SM SCT150 BKN250=

USA.gov is the U.S. government's official web portal to all federal, state and local government web resources and services.